createdAt,value
2018-12-02T00:00:07.389Z,1.47
2018-12-02T00:05:11.466Z,1.63
2018-12-02T00:10:16.236Z,1.47
2018-12-02T00:15:22.934Z,1.47
2018-12-02T00:20:26.770Z,1.30
2018-12-02T00:25:30.575Z,1.50
2018-12-02T00:30:34.424Z,1.87
2018-12-02T00:35:38.460Z,1.50
2018-12-02T00:40:42.492Z,1.43
2018-12-02T00:45:46.508Z,1.63
2018-12-02T00:50:50.284Z,1.50
2018-12-02T00:56:00.959Z,1.10
2018-12-02T01:01:04.855Z,1.50
2018-12-02T01:06:08.638Z,1.30
2018-12-02T01:11:12.438Z,1.03
2018-12-02T01:16:16.484Z,1.00
2018-12-02T01:21:20.260Z,1.00
2018-12-02T01:26:24.055Z,0.90
2018-12-02T01:31:27.871Z,0.90
2018-12-02T01:36:31.980Z,1.00
2018-12-02T01:41:35.762Z,0.80
2018-12-02T01:46:39.574Z,0.80
2018-12-02T01:51:43.366Z,0.90
2018-12-02T01:56:47.150Z,0.80
2018-12-02T02:01:50.965Z,0.80
2018-12-02T02:06:54.796Z,0.70
2018-12-02T02:11:58.636Z,0.90
2018-12-02T02:17:02.704Z,0.83
2018-12-02T02:22:06.562Z,0.60
2018-12-02T02:27:10.354Z,0.90
2018-12-02T02:32:14.379Z,0.63
2018-12-02T02:37:18.175Z,0.77
2018-12-02T02:42:22.207Z,0.68
2018-12-02T02:47:26.095Z,0.60
2018-12-02T02:52:29.885Z,0.60
2018-12-02T02:57:33.683Z,0.80
2018-12-02T03:02:37.534Z,1.10
2018-12-02T03:07:41.342Z,1.00
2018-12-02T03:12:49.183Z,1.00
2018-12-02T03:17:52.984Z,0.90
2018-12-02T03:22:57.014Z,1.10
2018-12-02T03:28:00.809Z,1.20
2018-12-02T03:33:04.648Z,1.00
2018-12-02T03:38:08.446Z,1.40
2018-12-02T03:43:12.218Z,1.10
2018-12-02T03:48:16.015Z,1.10
2018-12-02T03:53:20.035Z,0.95
2018-12-02T03:58:23.845Z,0.97
2018-12-02T04:03:27.632Z,1.20
2018-12-02T04:08:31.429Z,1.20
2018-12-02T04:13:35.234Z,1.10
2018-12-02T04:18:39.333Z,1.10
2018-12-02T04:23:43.336Z,0.97
2018-12-02T04:28:47.467Z,0.90
2018-12-02T04:33:51.314Z,1.00
2018-12-02T04:38:55.174Z,1.07
2018-12-02T04:43:58.964Z,0.90
2018-12-02T04:49:02.740Z,0.80
2018-12-02T04:54:06.531Z,1.00
2018-12-02T04:59:10.348Z,0.78
2018-12-02T05:04:14.142Z,0.70
2018-12-02T05:09:17.997Z,0.80
2018-12-02T05:14:21.835Z,1.00
2018-12-02T05:19:25.918Z,0.90
2018-12-02T05:24:29.721Z,0.90
2018-12-02T05:29:33.517Z,0.90
2018-12-02T05:34:37.329Z,0.70
2018-12-02T05:39:41.159Z,0.80
2018-12-02T05:44:45.003Z,0.87
2018-12-02T05:49:48.812Z,0.67
2018-12-02T05:54:52.615Z,0.80
2018-12-02T05:59:56.435Z,0.70
2018-12-02T06:05:00.460Z,0.93
2018-12-02T06:10:06.925Z,0.70
2018-12-02T06:15:15.225Z,0.60
2018-12-02T06:20:19.901Z,0.40
2018-12-02T06:25:24.128Z,0.70
2018-12-02T06:30:28.407Z,0.60
2018-12-02T06:35:32.565Z,0.80
2018-12-02T06:40:36.408Z,0.80
2018-12-02T06:45:40.477Z,0.60
2018-12-02T06:50:46.528Z,0.67
2018-12-02T06:55:55.100Z,0.53
2018-12-02T07:03:17.032Z,0.80
2018-12-02T07:08:21.144Z,0.67
2018-12-02T07:13:25.017Z,0.70
2018-12-02T07:18:30.828Z,0.67
2018-12-02T07:23:34.631Z,0.50
2018-12-02T07:28:38.692Z,1.80
2018-12-02T07:33:42.548Z,1.00
2018-12-02T07:39:02.515Z,0.80
2018-12-02T07:44:06.360Z,0.80
2018-12-02T07:49:10.177Z,0.90
2018-12-02T07:54:13.976Z,2.57
2018-12-02T07:59:18.056Z,0.90
2018-12-02T08:04:22.101Z,1.30
2018-12-02T08:09:25.913Z,0.88
2018-12-02T08:14:29.712Z,0.97
2018-12-02T08:19:33.533Z,0.80
2018-12-02T08:24:37.336Z,1.10
2018-12-02T08:29:41.396Z,0.80
2018-12-02T08:34:45.199Z,0.90
2018-12-02T08:39:49.053Z,0.80
2018-12-02T08:44:52.906Z,0.90
2018-12-02T08:49:56.916Z,1.10
2018-12-02T08:55:00.719Z,0.90
2018-12-02T09:00:07.315Z,1.10
2018-12-02T09:05:12.280Z,0.90
2018-12-02T09:10:20.300Z,0.80
2018-12-02T09:15:24.368Z,0.70
2018-12-02T09:20:33.712Z,0.77
2018-12-02T09:25:37.537Z,1.00
2018-12-02T09:30:41.347Z,0.83
2018-12-02T09:35:45.158Z,1.00
2018-12-02T09:40:49.228Z,0.93
2018-12-02T09:45:53.071Z,0.80
2018-12-02T09:50:56.870Z,0.87
2018-12-02T09:56:00.687Z,1.17
2018-12-02T10:01:04.505Z,1.30
2018-12-02T10:06:08.337Z,0.83
2018-12-02T10:11:12.154Z,0.70
2018-12-02T10:16:17.281Z,0.70
2018-12-02T10:21:19.716Z,0.73
2018-12-02T10:26:23.503Z,0.70
2018-12-02T10:31:27.365Z,0.62
2018-12-02T10:36:31.473Z,0.70
2018-12-02T10:41:35.277Z,0.90
2018-12-02T10:46:43.825Z,0.60
2018-12-02T10:51:42.959Z,0.70
2018-12-02T10:56:47.041Z,0.70
2018-12-02T11:01:55.047Z,0.53
2018-12-02T11:06:58.942Z,0.93
2018-12-02T11:12:02.793Z,0.60
2018-12-02T11:17:06.611Z,0.73
2018-12-02T11:22:10.681Z,1.00
2018-12-02T11:27:14.753Z,0.90
2018-12-02T11:32:18.564Z,0.80
2018-12-02T11:37:22.667Z,1.20
2018-12-02T11:42:26.503Z,1.20
2018-12-02T11:47:30.307Z,0.83
2018-12-02T11:52:34.139Z,0.70
2018-12-02T11:57:38.533Z,0.63
2018-12-02T12:02:42.421Z,0.80
2018-12-02T12:07:47.977Z,0.80
2018-12-02T12:12:53.426Z,0.80
2018-12-02T12:17:57.703Z,0.90
2018-12-02T12:23:01.533Z,0.80
2018-12-02T12:28:06.113Z,0.80
2018-12-02T12:33:11.129Z,0.77
2018-12-02T12:38:14.936Z,0.67
2018-12-02T12:43:22.385Z,0.90
2018-12-02T12:48:26.239Z,0.90
2018-12-02T12:53:30.509Z,1.30
2018-12-02T12:58:34.553Z,0.90
2018-12-02T13:03:38.384Z,1.00
2018-12-02T13:08:42.180Z,1.00
2018-12-02T13:13:46.200Z,1.03
2018-12-02T13:18:50.299Z,1.30
2018-12-02T13:23:54.380Z,1.40
2018-12-02T13:28:58.220Z,1.33
2018-12-02T13:34:02.028Z,1.80
2018-12-02T13:39:10.297Z,1.50
2018-12-02T13:44:14.092Z,1.30
2018-12-02T13:49:17.959Z,1.37
2018-12-02T13:54:27.119Z,1.17
2018-12-02T13:59:31.887Z,1.57
2018-12-02T14:04:35.716Z,1.60
2018-12-02T14:09:40.800Z,1.57
2018-12-02T14:14:45.049Z,2.23
2018-12-02T14:19:49.191Z,2.10
2018-12-02T14:24:53.026Z,2.80
2018-12-02T14:29:57.833Z,1.90
2018-12-02T14:35:01.714Z,1.62
2018-12-02T14:40:09.108Z,1.50
2018-12-02T14:45:16.149Z,1.63
2018-12-02T14:50:20.005Z,1.60
2018-12-02T14:55:23.918Z,1.70
2018-12-02T15:00:27.741Z,1.53
2018-12-02T15:05:31.540Z,1.60
2018-12-02T15:10:35.348Z,1.70
2018-12-02T15:15:39.900Z,1.57
2018-12-02T15:20:43.769Z,1.90
2018-12-02T15:25:47.561Z,2.10
2018-12-02T15:30:51.401Z,2.30
2018-12-02T15:35:55.211Z,1.80
2018-12-02T15:40:59.286Z,1.83
2018-12-02T15:46:03.116Z,2.40
2018-12-02T15:51:06.956Z,2.37
2018-12-02T15:56:11.048Z,2.00
2018-12-02T16:01:15.109Z,2.30
2018-12-02T16:06:18.921Z,2.20
2018-12-02T16:11:23.018Z,2.33
2018-12-02T16:16:26.910Z,2.12
2018-12-02T16:21:30.953Z,2.10
2018-12-02T16:26:34.788Z,2.27
2018-12-02T16:31:38.903Z,2.20
2018-12-02T16:36:42.769Z,2.30
2018-12-02T16:41:46.656Z,2.30
2018-12-02T16:46:50.545Z,2.30
2018-12-02T16:51:54.372Z,2.40
2018-12-02T16:56:59.684Z,2.40
2018-12-02T17:02:06.717Z,2.90
2018-12-02T17:07:10.585Z,3.00
2018-12-02T17:12:14.408Z,3.60
2018-12-02T17:17:18.236Z,3.83
2018-12-02T17:22:22.108Z,3.30
2018-12-02T17:27:25.947Z,3.83
2018-12-02T17:32:29.777Z,4.63
2018-12-02T17:37:33.619Z,3.80
2018-12-02T17:42:37.520Z,5.93
2018-12-02T17:47:41.340Z,5.60
2018-12-02T17:52:46.453Z,4.13
2018-12-02T17:57:50.350Z,3.50
2018-12-02T18:02:55.693Z,3.87
2018-12-02T18:07:59.571Z,4.00
2018-12-02T18:13:03.407Z,3.80
2018-12-02T18:18:07.864Z,4.23
2018-12-02T18:23:11.960Z,4.40
2018-12-02T18:28:16.017Z,5.17
2018-12-02T18:33:19.837Z,4.10
2018-12-02T18:38:25.756Z,3.27
2018-12-02T18:43:29.850Z,3.10
2018-12-02T18:48:33.912Z,3.30
2018-12-02T18:53:38.023Z,3.07
2018-12-02T18:58:41.866Z,2.93
2018-12-02T19:03:45.706Z,2.90
2018-12-02T19:08:49.937Z,3.20
2018-12-02T19:13:53.748Z,3.00
2018-12-02T19:18:57.793Z,4.20
2018-12-02T19:29:02.408Z,3.20
2018-12-02T19:34:07.196Z,2.80
2018-12-02T19:39:11.617Z,2.30
2018-12-02T19:44:15.688Z,1.90
2018-12-02T19:49:19.639Z,2.20
2018-12-02T19:54:23.480Z,2.40
2018-12-02T19:59:27.613Z,2.30
2018-12-02T20:04:32.604Z,2.33
2018-12-02T20:09:36.495Z,2.60
2018-12-02T20:14:40.362Z,3.60
2018-12-02T20:19:49.917Z,3.80
2018-12-02T20:24:53.748Z,3.53
2018-12-02T20:29:57.858Z,3.50
2018-12-02T20:35:01.684Z,3.17
2018-12-02T20:40:10.296Z,3.20
2018-12-02T20:45:15.832Z,6.40
2018-12-02T20:50:19.716Z,5.43
2018-12-02T20:55:25.842Z,2.83
2018-12-02T21:00:29.659Z,3.00
2018-12-02T21:05:36.338Z,2.60
2018-12-02T21:10:40.143Z,2.30
2018-12-02T21:15:44.341Z,1.90
2018-12-02T21:20:48.384Z,1.97
2018-12-02T21:25:52.486Z,1.80
2018-12-02T21:30:56.298Z,2.23
2018-12-02T21:36:00.143Z,2.07
2018-12-02T21:41:04.192Z,2.27
2018-12-02T21:46:14.798Z,2.27
2018-12-02T21:51:18.619Z,2.30
2018-12-02T21:56:22.979Z,2.43
2018-12-02T22:01:26.856Z,2.70
2018-12-02T22:06:30.657Z,2.50
2018-12-02T22:11:34.492Z,3.10
2018-12-02T22:16:38.537Z,2.70
2018-12-02T22:21:42.596Z,3.10
2018-12-02T22:26:46.646Z,3.57
2018-12-02T22:31:50.447Z,4.00
2018-12-02T22:36:54.255Z,4.53
2018-12-02T22:41:58.076Z,3.73
2018-12-02T22:47:02.635Z,4.50
2018-12-02T22:52:06.437Z,4.20
2018-12-02T22:57:10.271Z,4.83
2018-12-02T23:02:16.743Z,4.77
2018-12-02T23:07:20.560Z,4.90
2018-12-02T23:12:24.447Z,4.30
2018-12-02T23:17:28.245Z,4.53
2018-12-02T23:22:32.128Z,4.30
2018-12-02T23:27:35.988Z,4.12
2018-12-02T23:32:40.059Z,4.40
2018-12-02T23:37:44.088Z,3.97
2018-12-02T23:42:47.935Z,3.77
2018-12-02T23:47:51.763Z,4.30
2018-12-02T23:52:55.863Z,3.27
2018-12-02T23:57:59.907Z,3.80
